首页
METAR-TAF:

METAR-TAF

机场 :

布鲁塞尔机场

布鲁塞尔, 比利时

纬度: 50-54N, 经度: 004-32E, 海拔: 55米

当前天气观测

该预报发布于29分钟前的17:50 UTC
风速4节,风向东转东南
温度 3°C
湿度 81%
气压 1013 hPa
能见度10公里或以上
散云层高于2500英尺

METAR: EBBR 201750Z 11004KT 9999 SCT025 03/00 Q1013 NOSIG

时间: 19:19 (18:19 UTC)

预报

该预报发布于1小时和19分钟前的17:00 UTC
预报有效从20日的 18点(UTC)到 21日的 24点(UTC)
风速5节,风向东转东南
能见度10公里或以上
散云层高于2000英尺
短暂存在
从 21日的 02点(UTC)到 21日的 10点(UTC)
能見度: 3000
轻雾
几率 30% :
短暂存在
从 21日的 03点(UTC)到 21日的 09点(UTC)
能見度: 1500
浅雾

TAF: EBBR 201700Z 2018/2124 12005KT 9999 SCT020 TEMPO 2102/2110 3000 BR PROB30 TEMPO 2103/2109 1500 MIFG

超过4000个机场的气象观测和天气预报(METAR&TAF报告)。

可查询的气象台以黄色和红色小点在地图上表示。

将鼠标移到小点上方,可查看气象台名称。

然后点击查看天气观测和预报。

如需切换地图:点击带黑十字的绿色按钮放大地图;点击带横线的绿色按钮缩小地图;或者点击绿色箭头查看邻近地区的地图。


METAR-TAF: